Terminal Aerodrome Forecast
Issued by NWS

Home | Current Version | Previous Version | Text Only | Print | Product List | Glossary On
Versions: 1 2 3 4 5 6 7 8 9 10 11 12
000
FTUS43 KDTX 260525
TAFDET
TAF
KDET 260525Z 2606/2706 01010KT P6SM BKN120
     FM261000 36006KT P6SM SKC
     FM261700 01009KT P6SM BKN060=

USA.gov is the U.S. government's official web portal to all federal, state and local government web resources and services.